Latest Weather Observations for Rutherglen RS

IDV60801

Issued at 6:05 pm EDT Saturday 1 November 2014 (issued every 30 minutes, with the page automatically refreshed every 10 minutes)

About weather observations | Map of weather stations | Latest weather observations for VIC | Other Formats
Station Details ID: 082039 Name: RUTHERGLEN RESEARCH Lat: -36.10 Lon: 146.51 Height: 175.0 m
Data from the previous 72 hours. | See also: Recent months at Rutherglen RS
Date/Time
EDT
Temp
°C
App
Temp
°C
Dew
Point
Rel
Hum
%
Delta-T
°C
Wind Press
QNH
hPa
Press
MSL
hPa
Rain
since 9 am
mm
Dir
 
Spd
km/h
Gust
km/h
Spd
kts
Gust
kts
01/06:00pm 15.6 8.6 4.0 46 5.4 SW 30 46 16 25 - - 7.2
01/05:39pm 15.2 6.9 4.3 48 5.1 SW 37 56 20 30 - - 7.2
01/05:30pm 15.6 6.6 4.6 48 5.2 WSW 41 57 22 31 - - 7.2
01/05:18pm 17.9 10.8 3.8 39 6.7 W 30 48 16 26 - - 7.2
01/05:00pm 18.8 11.5 5.3 41 6.6 WSW 33 48 18 26 - - 7.2
01/04:33pm 19.0 10.8 2.8 34 7.6 WSW 35 54 19 29 - - 7.2
01/04:30pm 19.9 11.9 3.6 34 7.8 WSW 35 48 19 26 - - 7.2
01/04:28pm 19.8 11.8 3.9 35 7.6 WSW 35 54 19 29 - - 7.2
01/04:00pm 19.7 11.0 2.1 31 8.2 W 37 52 20 28 - - 7.2
01/03:30pm 19.8 10.5 3.1 33 7.9 W 41 59 22 32 - - 7.2
01/03:01pm 19.7 12.2 6.4 42 6.7 W 35 56 19 30 - - 7.2
01/03:00pm 20.9 14.1 7.5 42 7.0 W 33 48 18 26 - - 7.2
01/02:31pm 19.0 12.1 7.1 46 6.1 W 33 52 18 28 - - 7.2
01/02:30pm 19.1 11.8 7.2 46 6.1 W 35 52 19 28 - - 7.2
01/02:04pm 18.8 11.5 8.7 52 5.3 W 37 57 20 31 - - 7.2
01/02:00pm 18.8 11.9 10.4 58 4.5 W 37 54 20 29 - - 7.2
01/01:50pm 18.3 12.5 11.6 65 3.7 W 33 52 18 28 - - 7.2
01/01:30pm 17.5 13.2 12.2 71 2.9 W 26 39 14 21 - - 7.2
01/01:00pm 17.9 15.6 14.6 81 1.9 W 20 32 11 17 - - 7.2
01/12:30pm 17.0 14.8 15.0 88 1.2 W 20 32 11 17 - - 7.2
01/12:00pm 15.3 13.1 15.0 98 0.2 W 20 26 11 14 - - 7.2
01/11:30am 14.1 11.8 14.1 100 0.0 W 19 26 10 14 - - 7.2
01/11:00am 14.1 11.8 14.1 100 0.0 WSW 19 26 10 14 - - 7.2
01/10:30am 14.0 12.0 14.0 100 0.0 W 17 24 9 13 - - 6.2
01/10:00am 14.0 11.1 14.0 100 0.0 WSW 22 28 12 15 - - 3.8
01/09:30am 14.9 12.6 14.1 95 0.5 W 19 28 10 15 - - 1.4
01/09:00am 16.6 13.4 11.3 71 2.9 W 19 24 10 13 - - 0.0
01/08:30am 19.1 16.8 9.0 52 5.3 W 11 20 6 11 - - -
01/08:00am 19.5 17.4 8.2 48 5.9 WNW 9 13 5 7 - - -
01/07:30am 19.4 17.2 7.8 47 6.0 NW 9 11 5 6 - - -
01/07:00am 20.1 17.7 7.1 43 6.7 W 9 13 5 7 - - -
01/06:30am 20.6 17.3 6.5 40 7.2 WNW 13 20 7 11 - - -
01/06:00am 22.5 17.2 5.0 32 8.8 W 22 35 12 19 - - -
01/05:30am 24.5 19.7 5.8 30 9.6 NW 20 35 11 19 - - -
01/05:00am 23.2 19.5 4.2 29 9.4 N 13 17 7 9 - - -
01/04:30am 23.5 19.2 7.2 35 8.5 W 19 28 10 15 - - -
01/04:00am 23.4 19.5 3.4 27 9.8 N 13 22 7 12 - - -
01/03:30am 22.2 18.6 2.8 28 9.3 N 11 19 6 10 - - -
01/03:00am 21.1 17.9 3.3 31 8.5 NNE 9 13 5 7 - - -
01/02:30am 19.0 15.8 3.2 35 7.4 NNE 9 13 5 7 - - 0.0
01/02:00am 19.5 16.3 3.2 34 7.7 NNE 9 13 5 7 - - 0.0
01/01:30am 20.9 17.3 2.7 30 8.6 NNE 11 15 6 8 - - 0.0
01/01:00am 20.3 16.7 3.1 32 8.2 N 11 15 6 8 - - 0.0
01/12:30am 18.5 15.9 4.3 39 6.8 NNE 7 11 4 6 - - 0.0
01/12:00am 17.2 14.5 5.5 46 5.7 NNE 9 13 5 7 - - 0.0
 
Date/Time
EDT
Temp
°C
App
Temp
°C
Dew
Point
Rel
Hum
%
Delta-T
°C
Wind Press
QNH
hPa
Press
MSL
hPa
Rain
since 9 am
mm
Dir
 
Spd
km/h
Gust
km/h
Spd
kts
Gust
kts
31/11:30pm 12.8 11.1 8.5 75 2.2 ENE 7 9 4 5 - - 0.0
31/11:00pm 11.7 10.0 7.6 76 2.0 ENE 6 7 3 4 - - 0.0
31/10:30pm 11.7 10.1 8.0 78 1.8 NE 6 9 3 5 - - 0.0
31/10:00pm 12.4 11.4 7.5 72 2.4 E 2 7 1 4 - - 0.0
31/09:30pm 15.0 13.5 8.5 65 3.3 SSE 6 7 3 4 - - 0.0
31/09:00pm 15.9 14.4 8.4 61 3.8 ENE 6 7 3 4 - - 0.0
31/08:30pm 19.9 18.7 9.5 51 5.6 ENE 6 7 3 4 - - 0.0
31/08:00pm 23.7 22.5 8.2 37 8.3 NNE 4 6 2 3 - - 0.0
31/07:30pm 26.3 25.7 7.4 30 10.1 CALM 0 11 0 6 - - 0.0
31/07:00pm 30.7 30.0 8.4 25 12.4 WSW 2 6 1 3 - - 0.0
31/06:30pm 31.7 28.8 4.5 18 14.3 WSW 9 13 5 7 - - 0.0
31/06:00pm 32.6 29.1 3.5 16 15.1 W 11 17 6 9 - - 0.0
31/05:30pm 31.7 28.6 3.7 17 14.5 WNW 9 15 5 8 - - 0.0
31/05:00pm 32.0 27.9 2.1 15 15.1 WNW 13 19 7 10 - - 0.0
31/04:30pm 32.7 27.6 0.7 13 15.9 NW 17 28 9 15 - - 0.0
31/04:00pm 32.5 27.1 2.5 15 15.3 NW 20 32 11 17 - - 0.0
31/03:30pm 32.8 26.8 0.8 13 15.9 WNW 22 35 12 19 - - 0.0
31/03:00pm 31.9 27.9 3.0 16 14.8 NW 13 24 7 13 - - 0.0
31/02:30pm 31.8 26.3 2.0 15 15.0 NNW 20 41 11 22 - - 0.0
31/02:00pm 33.0 29.2 3.9 16 15.2 NW 13 22 7 12 - - 0.0
31/01:30pm 32.0 28.6 3.9 17 14.6 N 11 19 6 10 - - 0.0
31/01:00pm 31.3 28.6 5.7 20 13.7 NNW 9 20 5 11 - - 0.0
31/12:30pm 30.0 26.9 7.2 24 12.4 NE 13 22 7 12 - - 0.0
31/12:00pm 28.4 25.1 6.5 25 11.7 NNE 13 19 7 10 - - 0.0
31/11:30am 28.3 25.3 7.5 27 11.3 NE 13 19 7 10 - - 0.0
31/11:00am 27.2 24.7 8.1 30 10.4 NE 11 17 6 9 - - 0.0
31/10:30am 26.1 23.4 7.2 30 10.1 NE 11 17 6 9 - - 0.0
31/10:00am 24.7 21.8 6.4 31 9.5 NE 11 19 6 10 - - 0.0
31/09:30am 23.2 20.7 8.1 38 8.0 ENE 11 17 6 9 - - 0.0
31/09:00am 21.0 19.2 9.6 48 6.2 E 9 13 5 7 - - 0.0
31/08:30am 17.8 16.4 8.9 56 4.7 ENE 6 9 3 5 - - 0.0
31/08:00am 14.2 12.6 8.2 67 3.0 S 6 7 3 4 - - 0.0
31/07:30am 11.5 11.1 8.4 81 1.5 CALM 0 0 0 0 - - 0.0
31/07:00am 6.7 5.9 6.6 99 0.0 CALM 0 0 0 0 - - 0.0
31/06:30am 4.7 3.5 4.6 99 0.0 CALM 0 0 0 0 - - 0.0
31/06:00am 4.2 1.8 4.1 99 0.0 E 6 6 3 3 - - 0.0
31/05:30am 5.1 4.0 5.0 99 0.0 CALM 0 0 0 0 - - 0.0
31/05:00am 4.8 3.6 4.7 99 0.0 CALM 0 0 0 0 - - 0.0
31/04:30am 4.6 3.3 4.3 98 0.1 CALM 0 0 0 0 - - 0.0
31/04:00am 5.5 4.4 5.1 97 0.2 CALM 0 0 0 0 - - 0.0
31/03:30am 6.0 4.9 5.0 93 0.4 CALM 0 0 0 0 - - 0.0
31/03:00am 6.4 5.3 5.2 92 0.5 CALM 0 0 0 0 - - 0.0
31/02:30am 7.3 6.3 5.4 88 0.9 CALM 0 0 0 0 - - 0.0
31/02:00am 6.9 5.8 5.2 89 0.8 CALM 0 0 0 0 - - 0.0
31/01:30am 7.4 6.3 5.2 86 1.0 CALM 0 0 0 0 - - 0.0
31/01:00am 8.1 7.0 5.2 82 1.3 CALM 0 0 0 0 - - 0.0
31/12:30am 7.5 6.4 5.1 85 1.1 CALM 0 0 0 0 - - 0.0
31/12:00am 7.8 6.7 5.1 83 1.2 CALM 0 0 0 0 - - 0.0
 
Date/Time
EDT
Temp
°C
App
Temp
°C
Dew
Point
Rel
Hum
%
Delta-T
°C
Wind Press
QNH
hPa
Press
MSL
hPa
Rain
since 9 am
mm
Dir
 
Spd
km/h
Gust
km/h
Spd
kts
Gust
kts
30/11:30pm 8.7 7.7 5.6 81 1.4 CALM 0 0 0 0 - - 0.0
30/11:00pm 8.1 6.9 4.7 79 1.5 CALM 0 0 0 0 - - 0.0
30/10:30pm 9.6 8.5 5.2 74 2.0 CALM 0 0 0 0 - - 0.0
30/10:00pm 10.1 9.0 5.1 71 2.3 CALM 0 0 0 0 - - 0.0
30/09:30pm 12.4 11.6 6.5 67 2.8 CALM 0 0 0 0 - - 0.0
30/09:00pm 13.9 13.1 6.3 60 3.7 CALM 0 0 0 0 - - 0.0
30/08:30pm 15.7 14.6 5.0 49 5.1 CALM 0 0 0 0 - - 0.0
30/08:00pm 19.7 18.1 4.6 37 7.4 SW 2 6 1 3 - - 0.0
30/07:30pm 22.7 20.2 4.7 31 9.0 WSW 7 9 4 5 - - 0.0
30/07:00pm 25.4 21.9 3.4 24 10.9 WSW 11 15 6 8 - - 0.0
30/06:30pm 26.8 22.5 3.3 22 11.7 W 15 20 8 11 - - 0.0
30/06:00pm 27.6 23.3 3.3 21 12.2 W 15 22 8 12 - - 0.0
30/05:30pm 28.2 23.6 1.7 18 13.0 W 15 24 8 13 - - 0.0
30/05:00pm 28.6 23.8 4.8 22 12.3 WSW 19 28 10 15 - - 0.0
30/04:30pm 28.3 23.1 2.5 19 12.8 WSW 19 28 10 15 - - 0.0
30/04:00pm 28.6 24.0 3.5 20 12.7 W 17 20 9 11 - - 0.0
30/03:30pm 28.1 23.0 3.0 20 12.6 W 19 37 10 20 - - 0.0
30/03:00pm 28.1 22.5 3.7 21 12.4 WSW 22 35 12 19 - - 0.0
30/02:30pm 27.8 23.5 5.4 24 11.7 WSW 17 33 9 18 - - 0.0
30/02:00pm 27.3 22.6 3.1 21 12.1 W 17 28 9 15 - - 0.0
30/01:30pm 26.9 22.6 5.2 25 11.2 W 17 30 9 16 - - 0.0
30/01:00pm 26.2 22.6 6.8 29 10.3 W 15 24 8 13 - - 0.0
30/12:30pm 25.6 21.1 6.3 29 10.1 WSW 19 30 10 16 - - 0.0
30/12:00pm 24.7 20.6 6.0 30 9.7 WNW 17 24 9 13 - - 0.0
30/11:30am 24.0 21.5 8.0 36 8.5 NNW 11 17 6 9 - - 0.0
30/11:00am 23.3 21.0 7.4 36 8.4 W 9 15 5 8 - - 0.0
30/10:30am 21.7 19.5 7.9 41 7.3 NNW 9 15 5 8 - - 0.0
30/10:00am 21.2 19.3 9.1 46 6.5 N 9 13 5 7 - - 0.0
30/09:30am 19.2 16.8 8.5 50 5.6 N 11 15 6 8 - - 0.0
30/09:00am 18.5 17.2 9.8 57 4.6 NNE 7 9 4 5 - - 0.0
30/08:30am 15.6 15.7 10.2 70 2.9 CALM 0 7 0 4 - - 0.0
30/08:00am 12.1 12.1 9.7 85 1.2 CALM 0 0 0 0 - - 0.0
30/07:30am 9.6 9.5 9.5 99 0.1 CALM 0 0 0 0 - - 0.0
30/07:00am 6.1 4.4 6.1 100 0.0 ENE 4 7 2 4 - - 0.0
30/06:30am 3.9 2.6 3.9 100 0.0 CALM 0 0 0 0 - - 0.0
30/06:00am 4.3 2.7 4.3 100 0.0 SSE 2 7 1 4 - - 0.0
30/05:30am 3.6 1.1 3.5 99 0.0 SSE 6 7 3 4 - - 0.0
30/05:00am 5.3 4.2 5.2 99 0.0 CALM 0 0 0 0 - - 0.0
30/04:30am 5.4 4.3 5.3 99 0.0 CALM 0 0 0 0 - - 0.0
30/04:00am 5.9 4.9 5.8 99 0.0 CALM 0 0 0 0 - - 0.0
30/03:30am 5.8 4.8 5.7 99 0.0 CALM 0 0 0 0 - - 0.0
30/03:00am 5.5 4.5 5.4 99 0.0 CALM 0 0 0 0 - - 0.0
30/02:30am 4.9 2.6 4.8 99 0.0 E 6 7 3 4 - - 0.0
30/02:00am 5.5 3.7 5.4 99 0.0 E 4 6 2 3 - - 0.0
30/01:30am 5.8 3.7 5.7 99 0.0 E 6 7 3 4 - - 0.0
30/01:00am 6.5 4.9 6.4 99 0.0 E 4 6 2 3 - - 0.0
30/12:30am 6.6 5.0 6.5 99 0.0 E 4 7 2 4 - - 0.0
30/12:00am 6.1 4.4 5.8 98 0.1 E 4 6 2 3 - - 0.0
 
Date/Time
EDT
Temp
°C
App
Temp
°C
Dew
Point
Rel
Hum
%
Delta-T
°C
Wind Press
QNH
hPa
Press
MSL
hPa
Rain
since 9 am
mm
Dir
 
Spd
km/h
Gust
km/h
Spd
kts
Gust
kts
29/11:30pm 6.8 5.4 5.7 93 0.5 E 2 6 1 3 - - 0.0
29/11:00pm 7.8 7.1 7.1 95 0.3 CALM 0 0 0 0 - - 0.0
29/10:30pm 8.6 7.8 6.6 87 0.9 CALM 0 0 0 0 - - 0.0
29/10:00pm 9.0 8.3 6.8 86 1.0 CALM 0 0 0 0 - - 0.0
29/09:30pm 10.6 10.0 7.3 80 1.6 CALM 0 0 0 0 - - 0.0
29/09:00pm 12.1 11.5 7.4 73 2.3 CALM 0 0 0 0 - - 0.0
29/08:30pm 14.4 13.4 7.5 63 3.4 SSW 2 7 1 4 - - 0.0
29/08:00pm 16.4 14.6 7.1 54 4.7 W 6 7 3 4 - - 0.0
29/07:30pm 19.2 17.2 7.3 46 6.1 WNW 7 9 4 5 - - 0.0
29/07:00pm 21.2 18.0 6.7 39 7.4 W 13 19 7 10 - - 0.0
29/06:30pm 22.6 19.6 6.0 34 8.5 W 11 17 6 9 - - 0.0

Other Formats:

Comma delimited format used in spreadsheet applications
http://www.bom.gov.au/fwo/IDV60801/IDV60801.95837.axf

JavaScript Object Notation format (JSON) in row-major order
http://www.bom.gov.au/fwo/IDV60801/IDV60801.95837.json